Time;durP1;ratioP1;P1;durP2;ratioP2;P2;SDS_P1;SDS_P2;PMS_P1;PMS_P2;Temp;Humidity;BMP_temperature;BMP_pressure;BME280_temperature;BME280_humidity;BME280_pressure;Samples;Min_cycle;Max_cycle;Signal;HPM_P1;HPM_P2
2022/08/12 00:44:50;;;;;;;10.82;9.45;;;20.30;99.90;;;;;;5111243;28;20034;-73
2022/08/12 00:47:18;;;;;;;11.55;9.75;;;20.30;99.90;;;;;;5109772;28;20162;-73
2022/08/12 00:49:44;;;;;;;13.57;10.07;;;20.30;99.90;;;;;;5111341;28;20022;-73
2022/08/12 00:52:10;;;;;;;;;;;20.20;99.90;;;;;;5111436;28;20471;-74
2022/08/12 00:54:36;;;;;;;13.27;9.27;;;20.20;99.90;;;;;;5110728;28;19914;-74
2022/08/12 00:57:06;;;;;;;11.83;9.90;;;20.30;99.90;;;;;;5111058;28;20070;-74
2022/08/12 00:59:33;;;;;;;10.30;8.98;;;20.20;99.90;;;;;;5109722;28;20038;-74
2022/08/12 01:02:02;;;;;;;12.05;9.95;;;20.20;99.90;;;;;;5110975;28;20028;-73
2022/08/12 01:12:46;;;;;;;11.13;9.73;;;20.20;99.90;;;;;;5111134;28;20081;-72
2022/08/12 01:15:13;;;;;;;12.02;10.13;;;20.20;99.90;;;;;;5109396;28;20024;-73
2022/08/12 01:17:44;;;;;;;11.00;9.80;;;20.20;99.90;;;;;;5110852;28;20097;-73
2022/08/12 01:20:18;;;;;;;10.77;9.45;;;20.10;99.90;;;;;;5109636;28;20028;-73
2022/08/12 01:22:57;;;;;;;12.35;9.95;;;20.10;99.90;;;;;;5110395;28;20106;-73
2022/08/12 01:25:27;;;;;;;12.15;10.30;;;20.10;99.90;;;;;;5110736;28;20471;-73
2022/08/12 01:27:57;;;;;;;11.40;8.95;;;20.10;99.90;;;;;;5109671;28;20039;-74
2022/08/12 01:30:25;;;;;;;11.05;9.40;;;20.10;99.90;;;;;;5109414;28;20084;-74
2022/08/12 01:32:54;;;;;;;11.60;10.10;;;20.10;99.90;;;;;;5109284;28;20032;-74
2022/08/12 01:35:22;;;;;;;12.38;8.82;;;20.10;99.90;;;;;;5109249;28;20034;-73
2022/08/12 01:37:58;;;;;;;11.05;9.75;;;20.10;99.90;;;;;;5109097;28;20074;-73
2022/08/12 01:40:28;;;;;;;12.60;9.43;;;20.20;99.90;;;;;;5109337;28;20104;-73
2022/08/12 01:43:04;;;;;;;15.13;9.63;;;20.10;99.90;;;;;;5111199;28;20319;-73
2022/08/12 01:45:33;;;;;;;12.80;9.73;;;20.10;99.90;;;;;;5110701;28;20020;-73
2022/08/12 01:48:33;;;;;;;11.02;9.10;;;20.10;99.90;;;;;;5110806;28;20041;-73
2022/08/12 01:51:20;;;;;;;12.18;10.15;;;20.10;99.90;;;;;;5110818;28;20371;-73
2022/08/12 01:53:49;;;;;;;10.55;9.02;;;20.10;99.90;;;;;;5110353;28;20020;-73
2022/08/12 01:56:17;;;;;;;13.93;9.75;;;20.10;99.90;;;;;;5114277;28;20044;-73
2022/08/12 02:01:35;;;;;;;11.05;9.07;;;20.10;99.90;;;;;;5114536;28;20070;-73
2022/08/12 02:13:36;;;;;;;11.38;9.48;;;20.00;99.90;;;;;;5114460;28;20116;-73
2022/08/12 02:16:12;;;;;;;14.23;9.43;;;20.00;99.90;;;;;;5112840;28;20054;-74
2022/08/12 02:18:57;;;;;;;11.73;9.35;;;19.80;99.90;;;;;;5114048;28;20035;-74
2022/08/12 02:21:49;;;;;;;12.52;9.30;;;19.90;99.90;;;;;;5112900;28;20039;-73
2022/08/12 02:24:21;;;;;;;10.90;9.30;;;19.90;99.90;;;;;;5111290;28;20040;-74
2022/08/12 02:26:48;;;;;;;10.65;9.38;;;19.90;99.90;;;;;;5114177;28;20028;-73
2022/08/12 02:29:14;;;;;;;12.27;9.30;;;19.80;99.90;;;;;;5113945;28;20038;-73
2022/08/12 02:31:44;;;;;;;11.25;10.02;;;19.90;99.90;;;;;;5114296;28;20458;-74
2022/08/12 02:34:13;;;;;;;12.80;9.75;;;19.90;99.90;;;;;;5112176;28;20028;-74
2022/08/12 02:36:39;;;;;;;11.20;9.27;;;19.80;99.90;;;;;;5113879;28;20063;-73
2022/08/12 02:39:09;;;;;;;12.15;9.38;;;19.80;99.90;;;;;;5111940;28;20486;-74
2022/08/12 02:41:37;;;;;;;12.55;9.25;;;19.80;99.90;;;;;;5113609;28;20032;-73
2022/08/12 02:44:13;;;;;;;10.93;9.45;;;19.70;99.90;;;;;;5112120;28;20035;-74
2022/08/12 02:46:43;;;;;;;11.05;9.45;;;19.80;99.90;;;;;;5112332;28;20035;-73
2022/08/12 02:49:22;;;;;;;10.63;9.52;;;19.80;99.90;;;;;;5113410;28;20470;-73
2022/08/12 02:51:49;;;;;;;13.43;10.27;;;19.70;99.90;;;;;;5113970;28;20042;-74
2022/08/12 02:54:14;;;;;;;12.13;9.63;;;19.70;99.90;;;;;;5113291;28;20022;-74
2022/08/12 02:56:41;;;;;;;12.40;9.47;;;19.70;99.90;;;;;;5112151;28;20063;-73
2022/08/12 02:59:09;;;;;;;12.02;9.45;;;19.80;99.90;;;;;;5113552;28;20031;-73
2022/08/12 03:01:42;;;;;;;12.27;9.63;;;19.70;99.90;;;;;;5113968;28;20646;-73
2022/08/12 03:04:13;;;;;;;11.05;9.52;;;19.70;99.90;;;;;;5113140;28;20035;-73
2022/08/12 03:07:03;;;;;;;14.35;10.57;;;19.70;99.90;;;;;;5110877;28;20036;-73
2022/08/12 03:09:35;;;;;;;10.25;9.07;;;19.70;99.90;;;;;;5113053;28;20052;-73
2022/08/12 03:12:08;;;;;;;12.13;10.63;;;19.70;99.90;;;;;;5111876;28;20027;-75
2022/08/12 03:14:35;;;;;;;14.07;10.05;;;19.70;99.90;;;;;;5113130;28;20019;-74
2022/08/12 03:17:14;;;;;;;12.73;10.27;;;19.60;99.90;;;;;;5113225;28;20181;-73
2022/08/12 03:19:42;;;;;;;11.95;10.13;;;19.70;99.90;;;;;;5112749;28;20113;-73
2022/08/12 03:22:13;;;;;;;13.50;10.07;;;19.60;99.90;;;;;;5113145;28;20027;-75
2022/08/12 03:24:43;;;;;;;12.90;9.93;;;19.60;99.90;;;;;;5111374;28;20019;-74
2022/08/12 03:27:12;;;;;;;11.82;10.07;;;19.60;99.90;;;;;;5111594;28;20452;-74
2022/08/12 03:29:40;;;;;;;12.35;10.40;;;19.60;99.90;;;;;;5112811;28;20076;-74
2022/08/12 03:32:07;;;;;;;11.70;10.00;;;19.60;99.90;;;;;;5111252;28;20032;-74
2022/08/12 03:34:35;;;;;;;13.88;11.25;;;19.60;99.90;;;;;;5112323;28;20494;-73
2022/08/12 03:37:06;;;;;;;11.85;10.25;;;19.50;99.90;;;;;;5112894;28;20051;-74
2022/08/12 03:39:40;;;;;;;12.48;10.07;;;19.60;99.90;;;;;;5110756;28;20497;-74
2022/08/12 03:42:50;;;;;;;11.38;9.35;;;19.50;99.90;;;;;;5112749;28;20024;-74
2022/08/12 04:02:00;;;;;;;13.48;10.27;;;19.60;99.90;;;;;;5112159;28;20089;-73
2022/08/12 04:04:34;;;;;;;12.07;10.23;;;19.60;99.90;;;;;;5110536;28;20471;-74
2022/08/12 04:07:06;;;;;;;12.90;10.20;;;19.60;99.90;;;;;;5111108;28;20176;-74
2022/08/12 04:09:33;;;;;;;13.00;10.65;;;19.60;99.90;;;;;;5112007;27;20027;-74
2022/08/12 04:14:42;;;;;;;12.32;10.23;;;19.50;99.90;;;;;;5111760;28;20034;-74
2022/08/12 04:17:09;;;;;;;13.20;11.10;;;19.60;99.90;;;;;;5111727;28;20043;-73
2022/08/12 04:19:36;;;;;;;12.25;10.02;;;19.60;99.90;;;;;;5110225;28;20031;-74
2022/08/12 04:22:02;;;;;;;13.73;10.88;;;19.60;99.90;;;;;;5111852;28;20092;-73
2022/08/12 04:24:28;;;;;;;14.50;10.73;;;19.60;99.90;;;;;;5111653;28;20470;-74
2022/08/12 04:26:54;;;;;;;15.10;10.70;;;19.50;99.90;;;;;;5109738;28;20342;-73
2022/08/12 04:29:23;;;;;;;13.50;10.90;;;19.50;99.90;;;;;;5110193;28;20506;-72
2022/08/12 04:31:49;;;;;;;14.75;10.57;;;19.60;99.90;;;;;;5111869;28;20502;-72
2022/08/12 04:34:15;;;;;;;12.73;11.18;;;19.50;99.90;;;;;;5109980;28;20019;-73
2022/08/12 04:36:42;;;;;;;12.48;10.90;;;19.60;99.90;;;;;;5111148;28;20119;-73
2022/08/12 04:39:09;;;;;;;12.27;10.57;;;19.60;99.90;;;;;;5110043;28;20526;-73
2022/08/12 04:41:36;;;;;;;12.02;10.48;;;19.60;99.90;;;;;;5111071;28;20057;-74
2022/08/12 04:44:02;;;;;;;;;;;19.70;99.90;;;;;;5111688;28;20031;-73
2022/08/12 04:46:28;;;;;;;12.00;10.73;;;19.70;99.90;;;;;;5110630;28;20258;-73
2022/08/12 04:48:53;;;;;;;12.90;10.27;;;19.70;99.90;;;;;;5111338;28;20360;-72
2022/08/12 04:51:20;;;;;;;12.57;10.87;;;19.80;99.90;;;;;;5109553;28;20530;-73
2022/08/12 04:53:46;;;;;;;;;;;19.80;99.90;;;;;;5111444;28;20761;-73
2022/08/12 04:56:13;;;;;;;11.43;9.48;;;19.90;99.90;;;;;;5110594;28;19927;-73
2022/08/12 04:58:39;;;;;;;;;;;20.00;99.90;;;;;;5110128;28;20538;-73
2022/08/12 05:01:05;;;;;;;11.93;10.25;;;20.10;99.90;;;;;;5110412;28;19915;-74
2022/08/12 05:03:31;;;;;;;12.98;10.02;;;20.10;99.90;;;;;;5109870;28;20023;-73
2022/08/12 05:05:57;;;;;;;11.50;10.30;;;20.20;99.90;;;;;;5109801;28;20152;-73
2022/08/12 05:08:25;;;;;;;14.82;11.15;;;20.30;99.90;;;;;;5110790;28;20049;-73
2022/08/12 05:10:52;;;;;;;12.13;10.23;;;20.30;99.90;;;;;;5110823;28;20636;-73
2022/08/12 05:13:44;;;;;;;12.23;10.80;;;20.40;99.90;;;;;;5109792;28;20465;-74
2022/08/12 05:16:10;;;;;;;11.73;10.50;;;20.50;99.90;;;;;;5107188;28;20144;-73
2022/08/12 05:18:38;;;;;;;12.50;10.20;;;20.50;99.90;;;;;;5109697;28;20509;-73
2022/08/12 05:21:06;;;;;;;13.98;10.23;;;20.50;99.90;;;;;;5110021;28;20028;-73
2022/08/12 05:23:34;;;;;;;13.55;11.25;;;20.50;99.90;;;;;;5110351;28;20024;-73
2022/08/12 05:26:00;;;;;;;12.85;11.10;;;20.50;99.90;;;;;;5110280;28;20039;-73
2022/08/12 05:28:27;;;;;;;13.87;10.83;;;20.50;99.90;;;;;;5109005;28;20039;-73
2022/08/12 05:30:54;;;;;;;12.45;10.55;;;20.60;99.90;;;;;;5113823;28;20469;-72
2022/08/12 05:33:20;;;;;;;;;;;20.60;99.90;;;;;;5113697;28;20065;-74
2022/08/12 05:35:48;;;;;;;12.88;9.75;;;20.70;99.90;;;;;;5114519;28;19942;-74
2022/08/12 05:41:02;;;;;;;13.38;9.98;;;20.70;99.90;;;;;;5094314;28;20407;-73
2022/08/12 05:43:28;;;;;;;11.77;10.32;;;20.80;99.90;;;;;;5094440;28;20085;-73
2022/08/12 05:45:54;;;;;;;14.38;10.77;;;20.90;99.90;;;;;;5094238;28;20496;-73
2022/08/12 05:48:20;;;;;;;13.27;10.38;;;20.90;99.90;;;;;;5093891;28;20502;-72
2022/08/12 05:50:46;;;;;;;12.52;11.23;;;21.00;99.90;;;;;;5110246;28;20153;-74
2022/08/12 05:53:12;;;;;;;14.20;10.40;;;21.00;99.90;;;;;;5114107;28;20027;-72
2022/08/12 05:55:39;;;;;;;17.23;12.87;;;21.10;99.90;;;;;;5114012;28;20052;-73
2022/08/12 05:58:06;;;;;;;;;;;21.10;99.90;;;;;;5115730;27;20031;-75
2022/08/12 06:00:33;;;;;;;13.20;11.55;;;21.20;99.90;;;;;;5113709;28;19904;-73
2022/08/12 06:03:01;;;;;;;15.00;10.70;;;21.10;99.90;;;;;;5114172;28;20035;-74
2022/08/12 06:05:28;;;;;;;13.13;10.38;;;21.20;99.90;;;;;;5114312;28;20085;-74
2022/08/12 06:07:55;;;;;;;13.65;10.93;;;21.20;99.90;;;;;;5114821;27;20114;-74
2022/08/12 06:10:21;;;;;;;12.10;10.82;;;21.20;99.90;;;;;;5112594;28;20035;-74
2022/08/12 06:12:48;;;;;;;15.50;11.43;;;21.20;99.90;;;;;;5114062;28;20080;-72
2022/08/12 06:15:18;;;;;;;12.95;11.07;;;21.20;99.90;;;;;;5113907;28;20084;-73
2022/08/12 06:17:44;;;;;;;14.15;11.70;;;21.30;99.90;;;;;;5114498;28;20550;-73
2022/08/12 06:20:12;;;;;;;13.60;11.40;;;21.40;99.90;;;;;;5113378;28;20526;-73
2022/08/12 06:22:43;;;;;;;11.07;9.88;;;21.40;99.90;;;;;;5113794;28;20114;-73
2022/08/12 06:25:09;;;;;;;13.93;11.32;;;21.40;99.90;;;;;;5113997;28;20067;-73
2022/08/12 06:27:47;;;;;;;13.43;11.35;;;21.50;99.90;;;;;;5114084;28;20631;-73
2022/08/12 06:30:18;;;;;;;13.55;10.63;;;21.50;99.90;;;;;;5113785;27;20028;-72
2022/08/12 06:32:44;;;;;;;12.38;10.48;;;21.60;99.90;;;;;;5114019;28;20051;-73
2022/08/12 06:35:10;;;;;;;12.90;11.43;;;21.60;99.90;;;;;;5113803;28;20051;-73
2022/08/12 06:37:40;;;;;;;13.48;10.75;;;21.70;99.90;;;;;;5113661;28;20035;-73
2022/08/12 06:40:09;;;;;;;11.93;10.60;;;21.80;99.90;;;;;;5113319;28;20032;-73
2022/08/12 06:42:48;;;;;;;13.43;11.20;;;21.90;99.90;;;;;;5113837;28;20548;-73
2022/08/12 06:45:17;;;;;;;12.48;11.15;;;22.00;99.90;;;;;;5113074;28;20030;-73
2022/08/12 06:47:43;;;;;;;12.13;10.00;;;22.10;99.90;;;;;;5113553;28;20035;-73
2022/08/12 06:50:15;;;;;;;13.65;11.05;;;22.20;99.90;;;;;;5111832;28;20027;-73
2022/08/12 06:52:42;;;;;;;12.82;10.98;;;22.30;99.90;;;;;;5113238;28;20046;-73
2022/08/12 06:55:12;;;;;;;12.88;11.40;;;22.40;99.90;;;;;;5113031;28;20024;-73
2022/08/12 06:58:00;;;;;;;11.85;10.60;;;22.50;99.90;;;;;;5112346;28;20052;-73
2022/08/12 07:00:29;;;;;;;13.43;11.50;;;22.50;99.90;;;;;;5112974;28;20026;-73
2022/08/12 07:02:56;;;;;;;12.90;11.18;;;22.50;99.90;;;;;;5091662;28;20071;-74
2022/08/12 07:05:23;;;;;;;12.32;10.82;;;22.40;99.90;;;;;;5092571;28;20031;-74
2022/08/12 07:07:51;;;;;;;;;;;22.40;99.90;;;;;;5099952;28;20057;-74
2022/08/12 07:10:18;;;;;;;14.02;11.35;;;22.40;99.90;;;;;;5112882;28;19904;-73
2022/08/12 07:12:44;;;;;;;12.32;11.02;;;22.40;99.90;;;;;;5113221;28;20036;-74
2022/08/12 07:15:10;;;;;;;13.00;10.80;;;22.30;99.90;;;;;;5113236;28;20478;-73
2022/08/12 07:17:38;;;;;;;13.27;11.00;;;22.40;99.90;;;;;;5112945;28;20035;-74
2022/08/12 07:20:11;;;;;;;16.52;11.77;;;22.30;99.90;;;;;;5112721;28;20036;-74
2022/08/12 07:22:38;;;;;;;14.82;10.85;;;22.40;99.90;;;;;;5112446;28;20043;-74
2022/08/12 07:27:53;;;;;;;12.38;11.05;;;22.40;99.90;;;;;;5113034;28;20065;-74
2022/08/12 07:30:18;;;;;;;12.52;11.23;;;22.40;99.90;;;;;;5112326;28;20554;-73
2022/08/12 07:32:48;;;;;;;13.27;10.90;;;22.40;99.90;;;;;;5110971;28;20043;-73
2022/08/12 07:35:14;;;;;;;12.65;11.35;;;22.40;99.90;;;;;;5112293;27;20076;-74
2022/08/12 07:37:41;;;;;;;15.05;12.15;;;22.40;99.90;;;;;;5110638;28;20377;-73
2022/08/12 07:40:10;;;;;;;13.52;10.75;;;22.50;99.90;;;;;;5112167;28;20053;-74
2022/08/12 07:42:36;;;;;;;14.18;11.90;;;22.60;99.90;;;;;;5112583;28;20046;-75
2022/08/12 07:45:03;;;;;;;13.65;11.82;;;22.70;99.90;;;;;;5112046;27;20031;-73
2022/08/12 07:47:29;;;;;;;14.65;11.48;;;22.80;99.90;;;;;;5111680;28;20028;-73
2022/08/12 07:49:55;;;;;;;12.02;10.45;;;22.90;99.90;;;;;;5110709;28;20035;-75
2022/08/12 07:52:21;;;;;;;13.07;11.20;;;22.90;99.90;;;;;;5111770;28;20339;-72
2022/08/12 07:54:47;;;;;;;12.07;10.87;;;23.00;99.90;;;;;;5111379;28;20059;-73
2022/08/12 07:57:14;;;;;;;12.03;10.67;;;23.20;99.90;;;;;;5110599;28;20288;-74
2022/08/12 07:59:40;;;;;;;12.88;10.80;;;23.30;99.90;;;;;;5112342;28;20588;-74
2022/08/12 08:02:08;;;;;;;13.07;11.68;;;23.30;99.90;;;;;;5110296;28;20028;-74
2022/08/12 08:07:19;;;;;;;12.88;11.48;;;23.30;99.90;;;;;;5111879;28;20034;-74
2022/08/12 08:09:45;;;;;;;14.30;12.00;;;23.30;99.90;;;;;;5111357;28;20379;-73
2022/08/12 08:14:55;;;;;;;12.05;10.70;;;23.50;99.90;;;;;;5111892;28;20390;-74
2022/08/12 08:17:21;;;;;;;13.50;11.50;;;23.50;99.90;;;;;;5111552;28;20099;-73
2022/08/12 08:19:54;;;;;;;11.77;10.60;;;23.60;99.90;;;;;;5111609;28;20031;-73
2022/08/12 08:22:23;;;;;;;14.05;11.75;;;23.70;99.90;;;;;;5111810;28;20386;-73
2022/08/12 08:24:55;;;;;;;12.35;11.02;;;23.80;99.90;;;;;;5110814;28;20077;-74
2022/08/12 08:27:21;;;;;;;16.52;11.75;;;23.90;99.90;;;;;;5111190;28;20421;-73
2022/08/12 08:29:47;;;;;;;12.80;10.95;;;24.10;99.90;;;;;;5109941;28;20123;-73
2022/08/12 08:32:13;;;;;;;13.15;11.75;;;24.20;99.90;;;;;;5109831;28;20043;-73
2022/08/12 08:34:39;;;;;;;12.63;11.32;;;24.40;99.90;;;;;;5111295;28;20028;-73
2022/08/12 08:37:06;;;;;;;12.18;10.77;;;24.70;99.90;;;;;;5111370;28;20031;-74
2022/08/12 08:39:33;;;;;;;12.85;11.45;;;24.90;99.90;;;;;;5110729;28;20360;-74
2022/08/12 08:44:43;;;;;;;11.73;10.45;;;25.10;99.90;;;;;;5111070;28;20038;-73
2022/08/12 08:47:11;;;;;;;11.68;10.30;;;25.10;99.90;;;;;;5109740;28;20031;-74
2022/08/12 08:49:37;;;;;;;12.75;11.05;;;25.00;99.90;;;;;;5110847;28;20066;-74
2022/08/12 08:52:03;;;;;;;13.98;10.75;;;25.00;99.90;;;;;;5110975;28;20494;-74
2022/08/12 08:54:32;;;;;;;;;;;24.90;99.90;;;;;;5109325;28;20110;-74
2022/08/12 08:57:03;;;;;;;11.93;10.73;;;24.90;99.90;;;;;;5110437;28;19924;-74
2022/08/12 08:59:29;;;;;;;12.20;10.88;;;25.00;99.90;;;;;;5110751;28;20028;-73
2022/08/12 09:01:55;;;;;;;11.60;10.35;;;25.00;99.90;;;;;;5109265;28;20028;-74
2022/08/12 09:04:23;;;;;;;13.18;10.82;;;25.10;99.90;;;;;;5109319;28;20038;-74
2022/08/12 09:06:55;;;;;;;12.70;10.52;;;25.20;99.90;;;;;;5111430;28;20016;-73
2022/08/12 09:09:22;;;;;;;11.85;10.60;;;25.30;99.90;;;;;;5110131;28;20019;-74
2022/08/12 09:14:32;;;;;;;12.07;10.60;;;25.70;99.90;;;;;;5110643;28;20079;-74
2022/08/12 09:16:57;;;;;;;12.53;10.63;;;25.90;99.90;;;;;;5109034;28;20028;-73
2022/08/12 09:19:25;;;;;;;13.00;11.60;;;26.20;99.90;;;;;;5110453;28;20043;-73
2022/08/12 09:21:51;;;;;;;16.92;11.55;;;26.30;99.90;;;;;;5110594;28;20502;-73
2022/08/12 09:24:18;;;;;;;13.70;11.70;;;26.30;99.90;;;;;;5110244;28;20102;-73
2022/08/12 09:26:47;;;;;;;12.10;10.85;;;26.20;99.90;;;;;;5108826;28;20038;-73
2022/08/12 09:29:19;;;;;;;13.82;12.27;;;26.20;99.90;;;;;;5110124;28;20126;-73
2022/08/12 09:31:46;;;;;;;11.57;10.32;;;26.20;99.90;;;;;;5110594;28;20517;-73
2022/08/12 09:34:13;;;;;;;13.70;11.52;;;26.20;99.90;;;;;;5110089;28;20038;-73
2022/08/12 09:36:39;;;;;;;;;;;26.10;99.90;;;;;;5111056;28;20032;-74
2022/08/12 09:39:06;;;;;;;14.90;11.38;;;26.20;99.90;;;;;;5108645;28;20355;-74
2022/08/12 09:41:42;;;;;;;13.02;11.02;;;26.30;99.90;;;;;;5110634;28;20031;-74
2022/08/12 09:46:52;;;;;;;13.43;11.93;;;26.20;99.90;;;;;;5110629;28;20473;-74
2022/08/12 09:49:18;;;;;;;13.10;10.80;;;25.90;99.90;;;;;;5108663;28;20032;-73
2022/08/12 09:51:46;;;;;;;12.43;11.07;;;25.70;99.90;;;;;;5110388;28;20283;-73
2022/08/12 09:54:13;;;;;;;15.48;12.27;;;25.60;99.90;;;;;;5108742;28;20054;-73
2022/08/12 09:56:40;;;;;;;13.15;11.45;;;25.40;99.90;;;;;;5108902;28;20054;-73
2022/08/12 09:59:09;;;;;;;;;;;25.20;99.90;;;;;;5110778;28;20036;-73
2022/08/12 10:01:38;;;;;;;15.70;10.85;;;25.00;99.90;;;;;;5108501;28;19912;-73
2022/08/12 10:04:09;;;;;;;14.48;10.65;;;25.00;99.90;;;;;;5110314;28;20066;-73
2022/08/12 10:06:36;;;;;;;14.18;11.50;;;25.00;99.90;;;;;;5110520;28;20028;-73
2022/08/12 10:09:05;;;;;;;14.93;12.20;;;24.90;99.90;;;;;;5110093;28;20124;-73
2022/08/12 10:14:15;;;;;;;13.35;11.98;;;24.80;99.90;;;;;;5110107;28;20482;-73
2022/08/12 10:16:44;;;;;;;14.13;12.23;;;24.70;99.90;;;;;;5112884;28;20028;-74
2022/08/12 10:19:10;;;;;;;23.38;13.70;;;24.70;99.90;;;;;;5113497;28;20034;-73
2022/08/12 10:21:38;;;;;;;14.07;12.27;;;24.70;99.90;;;;;;5112196;28;20039;-73
2022/08/12 10:24:07;;;;;;;13.45;11.82;;;24.70;99.90;;;;;;5113793;28;20336;-73
2022/08/12 10:29:43;;;;;;;15.45;12.35;;;24.60;99.90;;;;;;5113607;28;20440;-74
2022/08/12 10:32:15;;;;;;;14.15;12.13;;;24.70;99.90;;;;;;5111995;28;20463;-75
2022/08/12 10:34:41;;;;;;;15.40;11.75;;;24.70;99.90;;;;;;5113277;28;20019;-74
2022/08/12 10:37:07;;;;;;;14.05;11.85;;;24.70;99.90;;;;;;5112080;28;20457;-74
2022/08/12 10:39:36;;;;;;;15.57;11.85;;;24.70;99.90;;;;;;5113594;28;20038;-74
2022/08/12 10:44:52;;;;;;;13.32;11.93;;;24.80;99.90;;;;;;5113201;28;20031;-72
2022/08/12 10:47:19;;;;;;;13.43;11.90;;;24.80;99.90;;;;;;5113351;28;20020;-74
2022/08/12 10:49:46;;;;;;;13.45;11.10;;;24.80;99.90;;;;;;5113051;28;20028;-74
2022/08/12 10:52:12;;;;;;;13.70;11.68;;;24.80;99.90;;;;;;5111869;28;20035;-73
2022/08/12 10:54:40;;;;;;;13.60;12.02;;;24.80;99.90;;;;;;5112993;28;20027;-73
2022/08/12 10:57:06;;;;;;;14.80;12.63;;;24.90;99.90;;;;;;5112707;28;20147;-73
2022/08/12 10:59:31;;;;;;;15.32;11.68;;;24.90;99.90;;;;;;5113054;28;20129;-73
2022/08/12 11:01:59;;;;;;;14.70;13.13;;;25.00;99.90;;;;;;5113222;28;20386;-74
2022/08/12 11:04:28;;;;;;;14.07;12.63;;;25.00;99.90;;;;;;5112785;28;20026;-74
2022/08/12 11:06:54;;;;;;;14.25;11.93;;;25.20;99.90;;;;;;5112831;28;20028;-74
2022/08/12 11:09:29;;;;;;;13.13;11.77;;;25.40;99.90;;;;;;5111395;28;20031;-73
2022/08/12 11:12:02;;;;;;;16.85;12.43;;;25.50;99.90;;;;;;5111403;28;20116;-73
2022/08/12 11:14:30;;;;;;;15.00;11.98;;;25.40;99.90;;;;;;5113184;28;20128;-73
2022/08/12 11:16:56;;;;;;;14.25;11.88;;;25.40;99.90;;;;;;5112934;28;20031;-73
2022/08/12 11:19:26;;;;;;;16.75;12.80;;;25.30;99.90;;;;;;5111136;28;20072;-74
2022/08/12 11:21:54;;;;;;;16.25;11.95;;;25.10;99.90;;;;;;5113037;28;20489;-73
2022/08/12 11:24:20;;;;;;;15.13;12.60;;;25.00;99.90;;;;;;5110346;28;20023;-73
2022/08/12 11:26:48;;;;;;;13.18;11.77;;;24.90;99.90;;;;;;5109894;28;20059;-73
2022/08/12 11:29:14;;;;;;;15.70;12.52;;;24.80;99.90;;;;;;5112546;28;20027;-74
2022/08/12 11:31:40;;;;;;;;;;;24.70;99.90;;;;;;5111627;28;20411;-74
2022/08/12 11:34:05;;;;;;;12.60;11.30;;;24.70;99.90;;;;;;5112543;28;19962;-74
2022/08/12 11:36:31;;;;;;;18.70;12.50;;;24.60;99.90;;;;;;5110883;28;20433;-74
2022/08/12 11:38:57;;;;;;;14.93;12.17;;;24.60;99.90;;;;;;5110647;28;20111;-74
2022/08/12 11:41:23;;;;;;;15.20;11.82;;;24.60;99.90;;;;;;5111962;28;20024;-74
2022/08/12 11:43:48;;;;;;;14.60;11.97;;;24.60;99.90;;;;;;5112002;28;20392;-74
2022/08/12 11:46:17;;;;;;;13.23;11.60;;;24.60;99.90;;;;;;5112293;28;20035;-72
2022/08/12 11:48:43;;;;;;;15.00;12.68;;;24.60;99.90;;;;;;5112186;28;20076;-73
2022/08/12 11:51:09;;;;;;;14.07;12.60;;;24.60;99.90;;;;;;5110417;28;20043;-72
2022/08/12 11:53:35;;;;;;;15.60;12.87;;;24.60;99.90;;;;;;5110735;28;20076;-73
2022/08/12 11:56:04;;;;;;;16.15;12.23;;;24.60;99.90;;;;;;5111262;28;20276;-73
2022/08/12 11:58:29;;;;;;;15.00;12.05;;;24.50;99.90;;;;;;5110378;28;20302;-74
2022/08/12 12:00:55;;;;;;;13.93;12.23;;;24.60;99.90;;;;;;5111882;28;20353;-73
2022/08/12 12:03:21;;;;;;;15.47;13.03;;;24.50;99.90;;;;;;5111672;28;20380;-73
2022/08/12 12:05:46;;;;;;;14.37;12.67;;;24.40;99.90;;;;;;5110076;28;20479;-73
2022/08/12 12:08:22;;;;;;;14.20;12.67;;;24.40;99.90;;;;;;5111751;28;20489;-73
2022/08/12 12:10:52;;;;;;;14.80;12.63;;;24.40;99.90;;;;;;5110388;28;20316;-73
2022/08/12 12:13:19;;;;;;;13.20;11.52;;;24.40;99.90;;;;;;5111662;28;20509;-73
2022/08/12 12:15:45;;;;;;;15.27;12.65;;;24.30;99.90;;;;;;5111514;28;20476;-73
2022/08/12 12:18:20;;;;;;;17.52;13.10;;;24.30;99.90;;;;;;5111761;28;20485;-73
2022/08/12 12:20:46;;;;;;;14.68;11.93;;;24.20;99.90;;;;;;5111020;28;20375;-74
2022/08/12 12:23:11;;;;;;;16.00;13.23;;;24.30;99.90;;;;;;5111250;28;20028;-73
2022/08/12 12:25:37;;;;;;;14.63;13.03;;;24.30;99.90;;;;;;5111458;28;20646;-75
2022/08/12 12:28:03;;;;;;;15.35;12.20;;;24.40;99.90;;;;;;5111501;28;20043;-73
2022/08/12 12:30:29;;;;;;;15.20;12.90;;;24.50;99.90;;;;;;5111280;28;20024;-73
2022/08/12 12:32:55;;;;;;;15.07;12.00;;;24.50;99.90;;;;;;5111664;28;20431;-74
2022/08/12 12:35:21;;;;;;;14.15;12.57;;;24.60;99.90;;;;;;5109896;28;20055;-72
2022/08/12 12:37:58;;;;;;;16.65;13.95;;;24.70;99.90;;;;;;5111385;28;20116;-73
2022/08/12 12:40:25;;;;;;;14.00;12.30;;;24.70;99.90;;;;;;5111119;28;20035;-73
2022/08/12 12:42:52;;;;;;;14.93;12.70;;;24.70;99.90;;;;;;5109272;28;20049;-72
2022/08/12 12:45:18;;;;;;;17.25;13.50;;;24.80;99.90;;;;;;5110145;28;20088;-73
2022/08/12 12:47:58;;;;;;;15.60;13.77;;;24.90;99.90;;;;;;5110869;28;20463;-73
2022/08/12 12:50:32;;;;;;;18.88;13.10;;;24.80;99.90;;;;;;5110526;28;20024;-73
2022/08/12 12:52:58;;;;;;;14.90;12.50;;;24.90;99.90;;;;;;5111196;28;20027;-73
2022/08/12 12:55:25;;;;;;;14.00;12.30;;;25.00;99.90;;;;;;5110977;28;20364;-74
2022/08/12 12:57:51;;;;;;;16.00;12.43;;;25.00;99.90;;;;;;5110443;28;20051;-73
2022/08/12 13:00:19;;;;;;;13.83;12.40;;;25.10;99.90;;;;;;5111056;28;20085;-74
2022/08/12 13:02:51;;;;;;;16.83;11.85;;;25.20;99.90;;;;;;5111262;28;20043;-74
2022/08/12 13:05:35;;;;;;;13.05;11.60;;;25.30;99.90;;;;;;5109212;28;20479;-73
2022/08/12 13:08:02;;;;;;;15.10;12.15;;;25.40;99.90;;;;;;5108914;28;20122;-73
2022/08/12 13:10:30;;;;;;;14.90;11.85;;;25.60;99.90;;;;;;5109307;28;20016;-74
2022/08/12 13:12:56;;;;;;;13.15;11.80;;;25.70;99.90;;;;;;5109047;28;20023;-73
2022/08/12 13:15:22;;;;;;;13.73;11.00;;;25.80;99.90;;;;;;5110796;28;20034;-74
2022/08/12 13:17:49;;;;;;;13.55;11.80;;;25.90;99.90;;;;;;5111241;28;20048;-73
2022/08/12 13:20:17;;;;;;;13.45;11.50;;;26.00;99.90;;;;;;5110839;28;20498;-73
2022/08/12 13:22:44;;;;;;;13.93;12.30;;;26.10;99.90;;;;;;5108961;28;20065;-74
2022/08/12 13:25:12;;;;;;;16.02;12.23;;;26.10;99.90;;;;;;5110257;28;20049;-74
2022/08/12 13:27:44;;;;;;;12.70;11.30;;;26.00;99.90;;;;;;5110871;28;20028;-73
2022/08/12 13:30:12;;;;;;;13.13;11.63;;;25.90;99.90;;;;;;5110548;28;20030;-73
2022/08/12 13:32:49;;;;;;;16.02;12.48;;;25.80;99.90;;;;;;5109108;28;20417;-74
2022/08/12 13:35:15;;;;;;;15.70;11.40;;;25.70;99.90;;;;;;5110109;28;20459;-74
2022/08/12 13:37:52;;;;;;;12.95;11.55;;;25.70;99.90;;;;;;5110934;28;20480;-73
2022/08/12 13:40:19;;;;;;;13.43;10.75;;;25.70;99.90;;;;;;5110319;28;20055;-74
2022/08/12 13:42:47;;;;;;;13.52;10.77;;;25.70;99.90;;;;;;5110479;28;20024;-74
2022/08/12 13:45:14;;;;;;;15.77;11.77;;;25.70;99.90;;;;;;5110158;28;20540;-74
2022/08/12 13:47:54;;;;;;;14.05;11.30;;;25.60;99.90;;;;;;5110449;28;20040;-73
2022/08/12 13:50:22;;;;;;;14.02;10.82;;;25.60;99.90;;;;;;5111379;28;20043;-73
2022/08/12 13:52:49;;;;;;;14.52;11.18;;;25.60;99.90;;;;;;5113600;28;20027;-74
2022/08/12 13:55:15;;;;;;;15.50;12.10;;;25.60;99.90;;;;;;5113956;28;20035;-74
2022/08/12 13:57:43;;;;;;;11.80;10.55;;;25.50;99.90;;;;;;5112639;28;20184;-74
2022/08/12 14:00:11;;;;;;;15.80;11.13;;;25.50;99.90;;;;;;5112816;28;20032;-74
2022/08/12 14:02:37;;;;;;;14.90;11.77;;;25.40;99.90;;;;;;5113077;28;20039;-73
2022/08/12 14:05:08;;;;;;;13.70;11.40;;;25.40;99.90;;;;;;5113730;28;20070;-73
2022/08/12 14:07:52;;;;;;;13.18;11.85;;;25.40;99.90;;;;;;5114561;28;20035;-73
2022/08/12 14:10:35;;;;;;;12.93;11.30;;;25.40;99.90;;;;;;5113056;28;20028;-73
2022/08/12 14:13:04;;;;;;;18.50;12.75;;;25.40;99.90;;;;;;5112686;28;20360;-73
2022/08/12 14:15:30;;;;;;;13.60;11.80;;;25.30;99.90;;;;;;5112802;28;20019;-73
2022/08/12 14:18:07;;;;;;;17.52;13.10;;;25.30;99.90;;;;;;5114651;28;20027;-73
2022/08/12 14:20:33;;;;;;;13.85;12.35;;;25.20;99.90;;;;;;5114037;28;20055;-72
2022/08/12 14:22:59;;;;;;;15.33;12.10;;;25.20;99.90;;;;;;5113616;27;20451;-73
2022/08/12 14:25:27;;;;;;;14.10;11.95;;;25.10;99.90;;;;;;5113922;28;20623;-73
2022/08/12 14:27:54;;;;;;;12.50;11.20;;;25.10;99.90;;;;;;5113661;28;20035;-74
2022/08/12 14:30:20;;;;;;;14.65;11.43;;;25.10;99.90;;;;;;5112266;28;20172;-73
2022/08/12 14:32:46;;;;;;;18.50;12.50;;;25.00;99.90;;;;;;5113574;28;20023;-73